sensor_id;sensor_type;location;lat;lon;timestamp;temperature;humidity
17774;DHT22;9011;33.236;-97.118;2023-06-14T00:02:21;24.40;99.90
17774;DHT22;9011;33.236;-97.118;2023-06-14T00:04:51;24.50;99.90
17774;DHT22;9011;33.236;-97.118;2023-06-14T00:07:22;24.50;99.90
17774;DHT22;9011;33.236;-97.118;2023-06-14T00:10:01;24.50;99.90
17774;DHT22;9011;33.236;-97.118;2023-06-14T00:12:31;24.50;99.90
17774;DHT22;9011;33.236;-97.118;2023-06-14T00:14:59;24.50;99.90
17774;DHT22;9011;33.236;-97.118;2023-06-14T00:17:28;24.50;99.90
17774;DHT22;9011;33.236;-97.118;2023-06-14T00:19:59;24.50;99.90
17774;DHT22;9011;33.236;-97.118;2023-06-14T00:22:30;24.50;99.90
17774;DHT22;9011;33.236;-97.118;2023-06-14T00:24:59;24.50;99.90
17774;DHT22;9011;33.236;-97.118;2023-06-14T00:27:27;24.50;99.90
17774;DHT22;9011;33.236;-97.118;2023-06-14T00:29:56;24.50;99.90
17774;DHT22;9011;33.236;-97.118;2023-06-14T00:32:24;24.40;99.90
17774;DHT22;9011;33.236;-97.118;2023-06-14T00:34:54;24.40;99.90
17774;DHT22;9011;33.236;-97.118;2023-06-14T00:37:24;24.40;99.90
17774;DHT22;9011;33.236;-97.118;2023-06-14T00:39:52;24.40;99.90
17774;DHT22;9011;33.236;-97.118;2023-06-14T00:42:24;24.40;99.90
17774;DHT22;9011;33.236;-97.118;2023-06-14T00:44:53;24.40;99.90
17774;DHT22;9011;33.236;-97.118;2023-06-14T00:47:21;24.40;99.90
17774;DHT22;9011;33.236;-97.118;2023-06-14T00:49:50;24.40;99.90
17774;DHT22;9011;33.236;-97.118;2023-06-14T00:52:19;24.40;99.90
17774;DHT22;9011;33.236;-97.118;2023-06-14T00:54:50;24.40;99.90
17774;DHT22;9011;33.236;-97.118;2023-06-14T00:57:19;24.40;99.90
17774;DHT22;9011;33.236;-97.118;2023-06-14T00:59:50;24.40;99.90
17774;DHT22;9011;33.236;-97.118;2023-06-14T01:02:19;24.40;99.90
17774;DHT22;9011;33.236;-97.118;2023-06-14T01:04:48;24.40;99.90
17774;DHT22;9011;33.236;-97.118;2023-06-14T01:07:26;24.40;99.90
17774;DHT22;9011;33.236;-97.118;2023-06-14T01:10:21;24.40;99.90
17774;DHT22;9011;33.236;-97.118;2023-06-14T01:12:58;24.40;99.90
17774;DHT22;9011;33.236;-97.118;2023-06-14T01:15:28;24.40;99.90
17774;DHT22;9011;33.236;-97.118;2023-06-14T01:17:58;24.40;99.90
17774;DHT22;9011;33.236;-97.118;2023-06-14T01:20:30;24.40;99.90
17774;DHT22;9011;33.236;-97.118;2023-06-14T01:23:00;24.40;99.90
17774;DHT22;9011;33.236;-97.118;2023-06-14T01:25:29;24.40;99.90
17774;DHT22;9011;33.236;-97.118;2023-06-14T01:27:59;24.30;99.90
17774;DHT22;9011;33.236;-97.118;2023-06-14T01:30:29;24.40;99.90
17774;DHT22;9011;33.236;-97.118;2023-06-14T01:32:59;24.40;99.90
17774;DHT22;9011;33.236;-97.118;2023-06-14T01:35:28;24.30;99.90
17774;DHT22;9011;33.236;-97.118;2023-06-14T01:37:57;24.30;99.90
17774;DHT22;9011;33.236;-97.118;2023-06-14T01:40:28;24.30;99.90
17774;DHT22;9011;33.236;-97.118;2023-06-14T01:42:58;24.30;99.90
17774;DHT22;9011;33.236;-97.118;2023-06-14T01:45:27;24.30;99.90
17774;DHT22;9011;33.236;-97.118;2023-06-14T01:47:56;24.30;99.90
17774;DHT22;9011;33.236;-97.118;2023-06-14T01:50:28;24.30;99.90
17774;DHT22;9011;33.236;-97.118;2023-06-14T01:52:57;24.30;99.90
17774;DHT22;9011;33.236;-97.118;2023-06-14T01:55:27;24.30;99.90
17774;DHT22;9011;33.236;-97.118;2023-06-14T01:57:59;24.30;99.90
17774;DHT22;9011;33.236;-97.118;2023-06-14T02:00:27;24.20;99.90
17774;DHT22;9011;33.236;-97.118;2023-06-14T02:02:55;24.20;99.90
17774;DHT22;9011;33.236;-97.118;2023-06-14T02:05:24;24.20;99.90
17774;DHT22;9011;33.236;-97.118;2023-06-14T02:07:53;24.20;99.90
17774;DHT22;9011;33.236;-97.118;2023-06-14T02:10:21;24.20;99.90
17774;DHT22;9011;33.236;-97.118;2023-06-14T02:12:51;24.20;99.90
17774;DHT22;9011;33.236;-97.118;2023-06-14T02:15:20;24.20;99.90
17774;DHT22;9011;33.236;-97.118;2023-06-14T02:17:48;24.20;99.90
17774;DHT22;9011;33.236;-97.118;2023-06-14T02:20:17;24.20;99.90
17774;DHT22;9011;33.236;-97.118;2023-06-14T02:22:46;24.20;99.90
17774;DHT22;9011;33.236;-97.118;2023-06-14T02:25:14;24.20;99.90
17774;DHT22;9011;33.236;-97.118;2023-06-14T02:27:43;24.20;99.90
17774;DHT22;9011;33.236;-97.118;2023-06-14T02:30:13;24.20;99.90
17774;DHT22;9011;33.236;-97.118;2023-06-14T02:32:42;24.20;99.90
17774;DHT22;9011;33.236;-97.118;2023-06-14T02:35:10;24.10;99.90
17774;DHT22;9011;33.236;-97.118;2023-06-14T02:37:39;24.10;99.90
17774;DHT22;9011;33.236;-97.118;2023-06-14T02:40:09;24.10;99.90
17774;DHT22;9011;33.236;-97.118;2023-06-14T02:42:38;24.10;99.90
17774;DHT22;9011;33.236;-97.118;2023-06-14T02:45:07;24.10;99.90
17774;DHT22;9011;33.236;-97.118;2023-06-14T02:47:38;24.10;99.90
17774;DHT22;9011;33.236;-97.118;2023-06-14T02:50:07;24.10;99.90
17774;DHT22;9011;33.236;-97.118;2023-06-14T02:52:36;24.10;99.90
17774;DHT22;9011;33.236;-97.118;2023-06-14T02:55:06;24.20;99.90
17774;DHT22;9011;33.236;-97.118;2023-06-14T02:57:34;24.10;99.90
17774;DHT22;9011;33.236;-97.118;2023-06-14T03:00:08;24.10;99.90
17774;DHT22;9011;33.236;-97.118;2023-06-14T03:02:41;24.10;99.90
17774;DHT22;9011;33.236;-97.118;2023-06-14T03:05:10;24.10;99.90
17774;DHT22;9011;33.236;-97.118;2023-06-14T03:07:39;24.10;99.90
17774;DHT22;9011;33.236;-97.118;2023-06-14T03:10:08;24.10;99.90
17774;DHT22;9011;33.236;-97.118;2023-06-14T03:12:39;24.10;99.90
17774;DHT22;9011;33.236;-97.118;2023-06-14T03:15:09;24.10;99.90
17774;DHT22;9011;33.236;-97.118;2023-06-14T03:17:41;24.00;99.90
17774;DHT22;9011;33.236;-97.118;2023-06-14T03:20:12;24.00;99.90
17774;DHT22;9011;33.236;-97.118;2023-06-14T03:22:42;24.00;99.90
17774;DHT22;9011;33.236;-97.118;2023-06-14T03:25:12;24.00;99.90
17774;DHT22;9011;33.236;-97.118;2023-06-14T03:27:41;24.00;99.90
17774;DHT22;9011;33.236;-97.118;2023-06-14T03:30:10;23.90;99.90
17774;DHT22;9011;33.236;-97.118;2023-06-14T03:32:40;23.90;99.90
17774;DHT22;9011;33.236;-97.118;2023-06-14T03:35:09;23.90;99.90
17774;DHT22;9011;33.236;-97.118;2023-06-14T03:37:43;23.90;99.90
17774;DHT22;9011;33.236;-97.118;2023-06-14T03:40:12;23.90;99.90
17774;DHT22;9011;33.236;-97.118;2023-06-14T03:42:41;24.00;99.90
17774;DHT22;9011;33.236;-97.118;2023-06-14T03:45:10;24.00;99.90
17774;DHT22;9011;33.236;-97.118;2023-06-14T03:47:40;23.90;99.90
17774;DHT22;9011;33.236;-97.118;2023-06-14T03:50:09;24.00;99.90
17774;DHT22;9011;33.236;-97.118;2023-06-14T03:52:37;24.00;99.90
17774;DHT22;9011;33.236;-97.118;2023-06-14T03:55:07;24.00;99.90
17774;DHT22;9011;33.236;-97.118;2023-06-14T03:57:35;24.00;99.90
17774;DHT22;9011;33.236;-97.118;2023-06-14T04:00:05;24.00;99.90
17774;DHT22;9011;33.236;-97.118;2023-06-14T04:02:34;24.00;99.90
17774;DHT22;9011;33.236;-97.118;2023-06-14T04:05:04;23.90;99.90
17774;DHT22;9011;33.236;-97.118;2023-06-14T04:07:35;23.90;99.90
17774;DHT22;9011;33.236;-97.118;2023-06-14T04:10:12;23.90;99.90
17774;DHT22;9011;33.236;-97.118;2023-06-14T04:12:40;23.90;99.90
17774;DHT22;9011;33.236;-97.118;2023-06-14T04:15:10;23.90;99.90
17774;DHT22;9011;33.236;-97.118;2023-06-14T04:17:38;23.90;99.90
17774;DHT22;9011;33.236;-97.118;2023-06-14T04:20:09;24.00;99.90
17774;DHT22;9011;33.236;-97.118;2023-06-14T04:22:37;23.90;99.90
17774;DHT22;9011;33.236;-97.118;2023-06-14T04:25:07;23.90;99.90
17774;DHT22;9011;33.236;-97.118;2023-06-14T04:27:36;23.90;99.90
17774;DHT22;9011;33.236;-97.118;2023-06-14T04:30:05;23.90;99.90
17774;DHT22;9011;33.236;-97.118;2023-06-14T04:32:34;23.90;99.90
17774;DHT22;9011;33.236;-97.118;2023-06-14T04:35:08;23.90;99.90
17774;DHT22;9011;33.236;-97.118;2023-06-14T04:37:36;23.90;99.90
17774;DHT22;9011;33.236;-97.118;2023-06-14T04:40:08;23.90;99.90
17774;DHT22;9011;33.236;-97.118;2023-06-14T04:42:37;23.90;99.90
17774;DHT22;9011;33.236;-97.118;2023-06-14T04:45:08;23.90;99.90
17774;DHT22;9011;33.236;-97.118;2023-06-14T04:47:36;23.80;99.90
17774;DHT22;9011;33.236;-97.118;2023-06-14T04:50:05;23.80;99.90
17774;DHT22;9011;33.236;-97.118;2023-06-14T04:52:35;23.80;99.90
17774;DHT22;9011;33.236;-97.118;2023-06-14T04:55:04;23.80;99.90
17774;DHT22;9011;33.236;-97.118;2023-06-14T04:57:33;23.80;99.90
17774;DHT22;9011;33.236;-97.118;2023-06-14T05:00:01;23.80;99.90
17774;DHT22;9011;33.236;-97.118;2023-06-14T05:02:31;23.80;99.90
17774;DHT22;9011;33.236;-97.118;2023-06-14T05:04:59;23.80;99.90
17774;DHT22;9011;33.236;-97.118;2023-06-14T05:07:28;23.80;99.90
17774;DHT22;9011;33.236;-97.118;2023-06-14T05:09:58;23.90;99.90
17774;DHT22;9011;33.236;-97.118;2023-06-14T05:12:26;23.90;99.90
17774;DHT22;9011;33.236;-97.118;2023-06-14T05:14:55;23.80;99.90
17774;DHT22;9011;33.236;-97.118;2023-06-14T05:17:24;23.90;99.90
17774;DHT22;9011;33.236;-97.118;2023-06-14T05:19:54;23.90;99.90
17774;DHT22;9011;33.236;-97.118;2023-06-14T05:22:22;23.90;99.90
17774;DHT22;9011;33.236;-97.118;2023-06-14T05:24:51;23.80;99.90
17774;DHT22;9011;33.236;-97.118;2023-06-14T05:27:20;23.80;99.90
17774;DHT22;9011;33.236;-97.118;2023-06-14T05:29:49;23.80;99.90
17774;DHT22;9011;33.236;-97.118;2023-06-14T05:32:17;23.80;99.90
17774;DHT22;9011;33.236;-97.118;2023-06-14T05:34:46;23.80;99.90
17774;DHT22;9011;33.236;-97.118;2023-06-14T05:37:14;23.90;99.90
17774;DHT22;9011;33.236;-97.118;2023-06-14T05:39:43;23.80;99.90
17774;DHT22;9011;33.236;-97.118;2023-06-14T05:42:12;23.80;99.90
17774;DHT22;9011;33.236;-97.118;2023-06-14T05:44:41;23.80;99.90
17774;DHT22;9011;33.236;-97.118;2023-06-14T05:47:10;23.80;99.90
17774;DHT22;9011;33.236;-97.118;2023-06-14T05:49:38;23.90;99.90
17774;DHT22;9011;33.236;-97.118;2023-06-14T05:52:08;23.90;99.90
17774;DHT22;9011;33.236;-97.118;2023-06-14T05:54:36;23.90;99.90
17774;DHT22;9011;33.236;-97.118;2023-06-14T05:57:05;23.90;99.90
17774;DHT22;9011;33.236;-97.118;2023-06-14T05:59:34;23.80;99.90
17774;DHT22;9011;33.236;-97.118;2023-06-14T06:02:04;23.80;99.90
17774;DHT22;9011;33.236;-97.118;2023-06-14T06:04:32;23.90;99.90
17774;DHT22;9011;33.236;-97.118;2023-06-14T06:07:01;23.80;99.90
17774;DHT22;9011;33.236;-97.118;2023-06-14T06:09:30;23.80;99.90
17774;DHT22;9011;33.236;-97.118;2023-06-14T06:11:58;23.80;99.90
17774;DHT22;9011;33.236;-97.118;2023-06-14T06:14:26;23.70;99.90
17774;DHT22;9011;33.236;-97.118;2023-06-14T06:16:56;23.80;99.90
17774;DHT22;9011;33.236;-97.118;2023-06-14T06:19:26;23.80;99.90
17774;DHT22;9011;33.236;-97.118;2023-06-14T06:21:54;23.70;99.90
17774;DHT22;9011;33.236;-97.118;2023-06-14T06:24:23;23.70;99.90
17774;DHT22;9011;33.236;-97.118;2023-06-14T06:26:51;23.70;99.90
17774;DHT22;9011;33.236;-97.118;2023-06-14T06:29:20;23.70;99.90
17774;DHT22;9011;33.236;-97.118;2023-06-14T06:31:48;23.80;99.90
17774;DHT22;9011;33.236;-97.118;2023-06-14T06:34:17;23.70;99.90
17774;DHT22;9011;33.236;-97.118;2023-06-14T06:36:47;23.80;99.90
17774;DHT22;9011;33.236;-97.118;2023-06-14T06:39:15;23.80;99.90
17774;DHT22;9011;33.236;-97.118;2023-06-14T06:41:44;23.80;99.90
17774;DHT22;9011;33.236;-97.118;2023-06-14T06:44:12;23.70;99.90
17774;DHT22;9011;33.236;-97.118;2023-06-14T06:46:40;23.70;99.90
17774;DHT22;9011;33.236;-97.118;2023-06-14T06:49:09;23.70;99.90
17774;DHT22;9011;33.236;-97.118;2023-06-14T06:54:10;23.60;99.90
17774;DHT22;9011;33.236;-97.118;2023-06-14T06:56:38;23.50;99.90
17774;DHT22;9011;33.236;-97.118;2023-06-14T06:59:07;23.50;99.90
17774;DHT22;9011;33.236;-97.118;2023-06-14T07:01:35;23.50;99.90
17774;DHT22;9011;33.236;-97.118;2023-06-14T07:04:04;23.50;99.90
17774;DHT22;9011;33.236;-97.118;2023-06-14T07:06:32;23.50;99.90
17774;DHT22;9011;33.236;-97.118;2023-06-14T07:09:00;23.50;99.90
17774;DHT22;9011;33.236;-97.118;2023-06-14T07:11:32;23.50;99.90
17774;DHT22;9011;33.236;-97.118;2023-06-14T07:14:00;23.50;99.90
17774;DHT22;9011;33.236;-97.118;2023-06-14T07:16:29;23.50;99.90
17774;DHT22;9011;33.236;-97.118;2023-06-14T07:18:57;23.50;99.90
17774;DHT22;9011;33.236;-97.118;2023-06-14T07:21:26;23.50;99.90
17774;DHT22;9011;33.236;-97.118;2023-06-14T07:23:55;23.50;99.90
17774;DHT22;9011;33.236;-97.118;2023-06-14T07:26:23;23.50;99.90
17774;DHT22;9011;33.236;-97.118;2023-06-14T07:28:54;23.50;99.90
17774;DHT22;9011;33.236;-97.118;2023-06-14T07:31:22;23.50;99.90
17774;DHT22;9011;33.236;-97.118;2023-06-14T07:33:51;23.50;99.90
17774;DHT22;9011;33.236;-97.118;2023-06-14T07:36:19;23.50;99.90
17774;DHT22;9011;33.236;-97.118;2023-06-14T07:38:47;23.50;99.90
17774;DHT22;9011;33.236;-97.118;2023-06-14T07:41:16;23.60;99.90
17774;DHT22;9011;33.236;-97.118;2023-06-14T07:43:45;23.60;99.90
17774;DHT22;9011;33.236;-97.118;2023-06-14T07:46:15;23.60;99.90
17774;DHT22;9011;33.236;-97.118;2023-06-14T07:48:43;23.60;99.90
17774;DHT22;9011;33.236;-97.118;2023-06-14T07:51:12;23.60;99.90
17774;DHT22;9011;33.236;-97.118;2023-06-14T07:53:40;23.60;99.90
17774;DHT22;9011;33.236;-97.118;2023-06-14T07:56:08;23.60;99.90
17774;DHT22;9011;33.236;-97.118;2023-06-14T07:58:37;23.60;99.90
17774;DHT22;9011;33.236;-97.118;2023-06-14T08:01:05;23.60;99.90
17774;DHT22;9011;33.236;-97.118;2023-06-14T08:03:35;23.60;99.90
17774;DHT22;9011;33.236;-97.118;2023-06-14T08:06:04;23.60;99.90
17774;DHT22;9011;33.236;-97.118;2023-06-14T08:08:32;23.60;99.90
17774;DHT22;9011;33.236;-97.118;2023-06-14T08:11:01;23.70;99.90
17774;DHT22;9011;33.236;-97.118;2023-06-14T08:13:29;23.60;99.90
17774;DHT22;9011;33.236;-97.118;2023-06-14T08:15:58;23.70;99.90
17774;DHT22;9011;33.236;-97.118;2023-06-14T08:18:27;23.60;99.90
17774;DHT22;9011;33.236;-97.118;2023-06-14T08:20:58;23.70;99.90
17774;DHT22;9011;33.236;-97.118;2023-06-14T08:23:26;23.70;99.90
17774;DHT22;9011;33.236;-97.118;2023-06-14T08:25:55;23.70;99.90
17774;DHT22;9011;33.236;-97.118;2023-06-14T08:28:25;23.70;99.90
17774;DHT22;9011;33.236;-97.118;2023-06-14T08:30:53;23.70;99.90
17774;DHT22;9011;33.236;-97.118;2023-06-14T08:33:22;23.70;99.90
17774;DHT22;9011;33.236;-97.118;2023-06-14T08:35:50;23.60;99.90
17774;DHT22;9011;33.236;-97.118;2023-06-14T08:38:20;23.60;99.90
17774;DHT22;9011;33.236;-97.118;2023-06-14T08:40:50;23.70;99.90
17774;DHT22;9011;33.236;-97.118;2023-06-14T08:43:19;23.70;99.90
17774;DHT22;9011;33.236;-97.118;2023-06-14T08:45:49;23.70;99.90
17774;DHT22;9011;33.236;-97.118;2023-06-14T08:48:23;23.70;99.90
17774;DHT22;9011;33.236;-97.118;2023-06-14T08:50:56;23.70;99.90
17774;DHT22;9011;33.236;-97.118;2023-06-14T08:53:31;23.70;99.90
17774;DHT22;9011;33.236;-97.118;2023-06-14T08:56:00;23.70;99.90
17774;DHT22;9011;33.236;-97.118;2023-06-14T08:58:31;23.70;99.90
17774;DHT22;9011;33.236;-97.118;2023-06-14T09:01:00;23.70;99.90
17774;DHT22;9011;33.236;-97.118;2023-06-14T09:03:29;23.70;99.90
17774;DHT22;9011;33.236;-97.118;2023-06-14T09:05:59;23.70;99.90
17774;DHT22;9011;33.236;-97.118;2023-06-14T09:08:30;23.70;99.90
17774;DHT22;9011;33.236;-97.118;2023-06-14T09:10:58;23.80;99.90
17774;DHT22;9011;33.236;-97.118;2023-06-14T09:13:29;23.70;99.90
17774;DHT22;9011;33.236;-97.118;2023-06-14T09:15:58;23.70;99.90
17774;DHT22;9011;33.236;-97.118;2023-06-14T09:18:35;23.70;99.90
17774;DHT22;9011;33.236;-97.118;2023-06-14T09:21:05;23.70;99.90
17774;DHT22;9011;33.236;-97.118;2023-06-14T09:23:37;23.80;99.90
17774;DHT22;9011;33.236;-97.118;2023-06-14T09:26:09;23.70;99.90
17774;DHT22;9011;33.236;-97.118;2023-06-14T09:28:42;23.80;99.90
17774;DHT22;9011;33.236;-97.118;2023-06-14T09:31:11;23.80;99.90
17774;DHT22;9011;33.236;-97.118;2023-06-14T09:33:42;23.70;99.90
17774;DHT22;9011;33.236;-97.118;2023-06-14T09:36:15;23.80;99.90
17774;DHT22;9011;33.236;-97.118;2023-06-14T09:38:54;23.80;99.90
17774;DHT22;9011;33.236;-97.118;2023-06-14T09:41:31;23.80;99.90
17774;DHT22;9011;33.236;-97.118;2023-06-14T09:44:00;23.80;99.90
17774;DHT22;9011;33.236;-97.118;2023-06-14T09:46:30;23.70;99.90
17774;DHT22;9011;33.236;-97.118;2023-06-14T09:48:59;23.70;99.90
17774;DHT22;9011;33.236;-97.118;2023-06-14T09:51:28;23.70;99.90
17774;DHT22;9011;33.236;-97.118;2023-06-14T09:54:00;23.70;99.90
17774;DHT22;9011;33.236;-97.118;2023-06-14T09:56:32;23.70;99.90
17774;DHT22;9011;33.236;-97.118;2023-06-14T09:59:04;23.70;99.90
17774;DHT22;9011;33.236;-97.118;2023-06-14T10:01:35;23.70;99.90
17774;DHT22;9011;33.236;-97.118;2023-06-14T10:04:04;23.70;99.90
17774;DHT22;9011;33.236;-97.118;2023-06-14T10:06:37;23.70;99.90
17774;DHT22;9011;33.236;-97.118;2023-06-14T10:09:09;23.70;99.90
17774;DHT22;9011;33.236;-97.118;2023-06-14T10:11:38;23.60;99.90
17774;DHT22;9011;33.236;-97.118;2023-06-14T10:14:11;23.60;99.90
17774;DHT22;9011;33.236;-97.118;2023-06-14T10:16:45;23.60;99.90
17774;DHT22;9011;33.236;-97.118;2023-06-14T10:19:20;23.70;99.90
17774;DHT22;9011;33.236;-97.118;2023-06-14T10:21:56;23.70;99.90
17774;DHT22;9011;33.236;-97.118;2023-06-14T10:24:30;23.60;99.90
17774;DHT22;9011;33.236;-97.118;2023-06-14T10:27:00;23.60;99.90
17774;DHT22;9011;33.236;-97.118;2023-06-14T10:29:28;23.60;99.90
17774;DHT22;9011;33.236;-97.118;2023-06-14T10:31:59;23.60;99.90
17774;DHT22;9011;33.236;-97.118;2023-06-14T10:34:30;23.60;99.90
17774;DHT22;9011;33.236;-97.118;2023-06-14T10:37:03;23.70;99.90
17774;DHT22;9011;33.236;-97.118;2023-06-14T10:39:40;23.70;99.90
17774;DHT22;9011;33.236;-97.118;2023-06-14T10:42:09;23.60;99.90
17774;DHT22;9011;33.236;-97.118;2023-06-14T10:44:42;23.60;99.90
17774;DHT22;9011;33.236;-97.118;2023-06-14T10:47:21;23.60;99.90
17774;DHT22;9011;33.236;-97.118;2023-06-14T10:49:52;23.60;99.90
17774;DHT22;9011;33.236;-97.118;2023-06-14T10:52:27;23.60;99.90
17774;DHT22;9011;33.236;-97.118;2023-06-14T10:55:00;23.60;99.90
17774;DHT22;9011;33.236;-97.118;2023-06-14T10:57:30;23.60;99.90
17774;DHT22;9011;33.236;-97.118;2023-06-14T10:59:59;23.50;99.90
17774;DHT22;9011;33.236;-97.118;2023-06-14T11:03:05;23.60;99.90
17774;DHT22;9011;33.236;-97.118;2023-06-14T11:05:50;23.50;99.90
17774;DHT22;9011;33.236;-97.118;2023-06-14T11:08:33;23.50;99.90
17774;DHT22;9011;33.236;-97.118;2023-06-14T11:11:08;23.50;99.90
17774;DHT22;9011;33.236;-97.118;2023-06-14T11:13:38;23.50;99.90
17774;DHT22;9011;33.236;-97.118;2023-06-14T11:16:11;23.50;99.90
17774;DHT22;9011;33.236;-97.118;2023-06-14T11:18:40;23.50;99.90
17774;DHT22;9011;33.236;-97.118;2023-06-14T11:21:09;23.50;99.90
17774;DHT22;9011;33.236;-97.118;2023-06-14T11:23:37;23.40;99.90
17774;DHT22;9011;33.236;-97.118;2023-06-14T11:26:07;23.50;99.90
17774;DHT22;9011;33.236;-97.118;2023-06-14T11:28:40;23.40;99.90
17774;DHT22;9011;33.236;-97.118;2023-06-14T11:31:09;23.40;99.90
17774;DHT22;9011;33.236;-97.118;2023-06-14T11:33:37;23.40;99.90
17774;DHT22;9011;33.236;-97.118;2023-06-14T11:36:06;23.50;99.90
17774;DHT22;9011;33.236;-97.118;2023-06-14T11:38:36;23.40;99.90
17774;DHT22;9011;33.236;-97.118;2023-06-14T11:41:05;23.40;99.90
17774;DHT22;9011;33.236;-97.118;2023-06-14T11:43:35;23.40;99.90
17774;DHT22;9011;33.236;-97.118;2023-06-14T11:46:03;23.50;99.90
17774;DHT22;9011;33.236;-97.118;2023-06-14T11:48:38;23.50;99.90
17774;DHT22;9011;33.236;-97.118;2023-06-14T11:51:07;23.40;99.90
17774;DHT22;9011;33.236;-97.118;2023-06-14T11:53:36;23.40;99.90
17774;DHT22;9011;33.236;-97.118;2023-06-14T11:56:05;23.40;99.90
17774;DHT22;9011;33.236;-97.118;2023-06-14T11:58:35;23.40;99.90
17774;DHT22;9011;33.236;-97.118;2023-06-14T12:01:04;23.40;99.90
17774;DHT22;9011;33.236;-97.118;2023-06-14T12:03:33;23.40;99.90
17774;DHT22;9011;33.236;-97.118;2023-06-14T12:06:06;23.40;99.90
17774;DHT22;9011;33.236;-97.118;2023-06-14T12:08:35;23.40;99.90
17774;DHT22;9011;33.236;-97.118;2023-06-14T12:11:06;23.40;99.90
17774;DHT22;9011;33.236;-97.118;2023-06-14T12:13:40;23.40;99.90
17774;DHT22;9011;33.236;-97.118;2023-06-14T12:16:09;23.50;99.90
17774;DHT22;9011;33.236;-97.118;2023-06-14T12:18:39;23.50;99.90
17774;DHT22;9011;33.236;-97.118;2023-06-14T12:21:10;23.50;99.90
17774;DHT22;9011;33.236;-97.118;2023-06-14T12:23:45;23.50;99.90
17774;DHT22;9011;33.236;-97.118;2023-06-14T12:26:14;23.50;99.90
17774;DHT22;9011;33.236;-97.118;2023-06-14T12:28:45;23.50;99.90
17774;DHT22;9011;33.236;-97.118;2023-06-14T12:31:15;23.60;99.90
17774;DHT22;9011;33.236;-97.118;2023-06-14T12:33:45;23.60;99.90
17774;DHT22;9011;33.236;-97.118;2023-06-14T12:36:15;23.60;99.90
17774;DHT22;9011;33.236;-97.118;2023-06-14T12:38:44;23.60;99.90
17774;DHT22;9011;33.236;-97.118;2023-06-14T12:41:12;23.60;99.90
17774;DHT22;9011;33.236;-97.118;2023-06-14T12:43:43;23.60;99.90
17774;DHT22;9011;33.236;-97.118;2023-06-14T12:46:12;23.70;99.90
17774;DHT22;9011;33.236;-97.118;2023-06-14T12:48:40;23.60;99.90
17774;DHT22;9011;33.236;-97.118;2023-06-14T12:51:08;23.70;99.90
17774;DHT22;9011;33.236;-97.118;2023-06-14T12:53:37;23.70;99.90
17774;DHT22;9011;33.236;-97.118;2023-06-14T12:56:06;23.70;99.90
17774;DHT22;9011;33.236;-97.118;2023-06-14T12:58:34;23.70;99.90
17774;DHT22;9011;33.236;-97.118;2023-06-14T13:01:04;23.70;99.90
17774;DHT22;9011;33.236;-97.118;2023-06-14T13:03:32;23.80;99.90
17774;DHT22;9011;33.236;-97.118;2023-06-14T13:06:01;23.90;99.90
17774;DHT22;9011;33.236;-97.118;2023-06-14T13:08:30;23.90;99.90
17774;DHT22;9011;33.236;-97.118;2023-06-14T13:10:58;23.90;99.90
17774;DHT22;9011;33.236;-97.118;2023-06-14T13:13:27;23.90;99.90
17774;DHT22;9011;33.236;-97.118;2023-06-14T13:15:55;23.90;99.90
17774;DHT22;9011;33.236;-97.118;2023-06-14T13:18:25;24.00;99.90
17774;DHT22;9011;33.236;-97.118;2023-06-14T13:20:53;24.00;99.90
17774;DHT22;9011;33.236;-97.118;2023-06-14T13:23:22;24.00;99.90
17774;DHT22;9011;33.236;-97.118;2023-06-14T13:25:50;24.00;99.90
17774;DHT22;9011;33.236;-97.118;2023-06-14T13:28:18;24.00;99.90
17774;DHT22;9011;33.236;-97.118;2023-06-14T13:30:47;24.00;99.90
17774;DHT22;9011;33.236;-97.118;2023-06-14T13:33:15;24.00;99.90
17774;DHT22;9011;33.236;-97.118;2023-06-14T13:35:45;23.90;99.90
17774;DHT22;9011;33.236;-97.118;2023-06-14T13:38:15;23.90;99.90
17774;DHT22;9011;33.236;-97.118;2023-06-14T13:40:43;23.90;99.90
17774;DHT22;9011;33.236;-97.118;2023-06-14T13:43:12;23.90;99.90
17774;DHT22;9011;33.236;-97.118;2023-06-14T13:45:40;24.00;99.90
17774;DHT22;9011;33.236;-97.118;2023-06-14T13:48:08;24.00;99.90
17774;DHT22;9011;33.236;-97.118;2023-06-14T13:50:37;24.10;99.90
17774;DHT22;9011;33.236;-97.118;2023-06-14T13:53:06;24.10;99.90
17774;DHT22;9011;33.236;-97.118;2023-06-14T13:55:35;24.10;99.90
17774;DHT22;9011;33.236;-97.118;2023-06-14T13:58:03;24.10;99.90
17774;DHT22;9011;33.236;-97.118;2023-06-14T14:00:31;24.00;99.90
17774;DHT22;9011;33.236;-97.118;2023-06-14T14:03:00;24.10;99.90
17774;DHT22;9011;33.236;-97.118;2023-06-14T14:05:30;24.20;99.90
17774;DHT22;9011;33.236;-97.118;2023-06-14T14:07:59;24.10;99.90
17774;DHT22;9011;33.236;-97.118;2023-06-14T14:10:29;24.10;99.90
17774;DHT22;9011;33.236;-97.118;2023-06-14T14:12:57;24.10;99.90
17774;DHT22;9011;33.236;-97.118;2023-06-14T14:15:26;24.10;99.90
17774;DHT22;9011;33.236;-97.118;2023-06-14T14:17:55;24.10;99.90
17774;DHT22;9011;33.236;-97.118;2023-06-14T14:20:23;24.10;99.90
17774;DHT22;9011;33.236;-97.118;2023-06-14T14:22:52;24.10;99.90
17774;DHT22;9011;33.236;-97.118;2023-06-14T14:25:20;24.10;99.90
17774;DHT22;9011;33.236;-97.118;2023-06-14T14:27:50;24.10;99.90
17774;DHT22;9011;33.236;-97.118;2023-06-14T14:30:18;24.10;99.90
17774;DHT22;9011;33.236;-97.118;2023-06-14T14:32:51;24.10;99.90
17774;DHT22;9011;33.236;-97.118;2023-06-14T14:35:20;24.10;99.90
17774;DHT22;9011;33.236;-97.118;2023-06-14T14:37:48;24.10;99.90
17774;DHT22;9011;33.236;-97.118;2023-06-14T14:40:17;24.10;99.90
17774;DHT22;9011;33.236;-97.118;2023-06-14T14:42:45;24.10;99.90
17774;DHT22;9011;33.236;-97.118;2023-06-14T14:45:15;24.10;99.90
17774;DHT22;9011;33.236;-97.118;2023-06-14T14:47:44;24.10;99.90
17774;DHT22;9011;33.236;-97.118;2023-06-14T14:50:12;24.10;99.90
17774;DHT22;9011;33.236;-97.118;2023-06-14T14:52:41;24.10;99.90
17774;DHT22;9011;33.236;-97.118;2023-06-14T14:55:09;24.10;99.90
17774;DHT22;9011;33.236;-97.118;2023-06-14T14:57:38;24.10;99.90
17774;DHT22;9011;33.236;-97.118;2023-06-14T15:00:07;24.10;99.90
17774;DHT22;9011;33.236;-97.118;2023-06-14T15:02:37;24.10;99.90
17774;DHT22;9011;33.236;-97.118;2023-06-14T15:05:06;24.10;99.90
17774;DHT22;9011;33.236;-97.118;2023-06-14T15:07:34;24.10;99.90
17774;DHT22;9011;33.236;-97.118;2023-06-14T15:10:05;24.10;99.90
17774;DHT22;9011;33.236;-97.118;2023-06-14T15:12:33;24.20;99.90
17774;DHT22;9011;33.236;-97.118;2023-06-14T15:15:02;24.20;99.90
17774;DHT22;9011;33.236;-97.118;2023-06-14T15:17:31;24.20;99.90
17774;DHT22;9011;33.236;-97.118;2023-06-14T15:20:01;24.10;99.90
17774;DHT22;9011;33.236;-97.118;2023-06-14T15:22:29;24.20;99.90
17774;DHT22;9011;33.236;-97.118;2023-06-14T15:24:57;24.20;99.90
17774;DHT22;9011;33.236;-97.118;2023-06-14T15:27:26;24.20;99.90
17774;DHT22;9011;33.236;-97.118;2023-06-14T15:29:55;24.20;99.90
17774;DHT22;9011;33.236;-97.118;2023-06-14T15:32:23;24.20;99.90
17774;DHT22;9011;33.236;-97.118;2023-06-14T15:34:51;24.30;99.90